createdAt,value
2022-10-15T00:01:18.806Z,98687.34
2022-10-15T00:03:45.558Z,98694.66
2022-10-15T00:06:16.564Z,98701.47
2022-10-15T00:08:43.353Z,98697.03
2022-10-15T00:11:14.045Z,98693.50
2022-10-15T00:13:40.527Z,98694.47
2022-10-15T00:16:12.750Z,98698.13
2022-10-15T00:18:39.651Z,98695.41
2022-10-15T00:21:07.774Z,98693.50
2022-10-15T00:23:34.318Z,98683.78
2022-10-15T00:26:01.584Z,98679.25
2022-10-15T00:28:31.878Z,98682.72
2022-10-15T00:31:05.020Z,98688.22
2022-10-15T00:33:31.495Z,98679.56
2022-10-15T00:36:05.928Z,98685.94
2022-10-15T00:38:32.378Z,98679.78
2022-10-15T00:40:59.373Z,98679.66
2022-10-15T00:43:39.152Z,98679.78
2022-10-15T00:46:06.640Z,98677.19
2022-10-15T00:48:33.148Z,98673.72
2022-10-15T00:51:04.189Z,98675.56
2022-10-15T00:53:30.819Z,98674.69
2022-10-15T00:55:58.230Z,98674.78
2022-10-15T00:58:28.390Z,98667.91
2022-10-15T01:00:55.377Z,98661.50
2022-10-15T01:03:22.018Z,98664.44
2022-10-15T01:05:49.515Z,98671.66
2022-10-15T01:08:16.226Z,98669.03
2022-10-15T01:10:42.604Z,98663.59
2022-10-15T01:13:21.114Z,98663.66
2022-10-15T01:15:57.277Z,98650.41
2022-10-15T01:18:28.400Z,98649.44
2022-10-15T01:21:00.888Z,98644.25
2022-10-15T01:23:30.369Z,98643.28
2022-10-15T01:26:15.524Z,98640.72
2022-10-15T01:28:48.398Z,98642.44
2022-10-15T01:31:38.025Z,98639.81
2022-10-15T01:34:10.382Z,98641.78
2022-10-15T01:36:42.656Z,98641.84
2022-10-15T01:39:27.621Z,98641.78
2022-10-15T01:42:01.019Z,98638.19
2022-10-15T01:44:34.636Z,98639.28
2022-10-15T01:47:05.149Z,98639.38
2022-10-15T01:49:33.521Z,98629.47
2022-10-15T01:52:01.919Z,98629.56
2022-10-15T01:54:28.490Z,98625.91
2022-10-15T01:56:56.167Z,98623.31
2022-10-15T01:59:24.536Z,98627.66
2022-10-15T02:01:51.063Z,98626.97
2022-10-15T02:04:18.600Z,98620.63
2022-10-15T02:06:46.878Z,98620.63
2022-10-15T02:09:36.546Z,98617.72
2022-10-15T02:12:05.800Z,98625.03
2022-10-15T02:14:38.530Z,98616.00
2022-10-15T02:17:11.878Z,98616.09
2022-10-15T02:19:49.356Z,98616.94
2022-10-15T02:22:15.777Z,98614.25
2022-10-15T02:24:55.999Z,98614.38
2022-10-15T02:27:22.924Z,98611.69
2022-10-15T02:29:50.609Z,98608.97
2022-10-15T02:32:19.293Z,98594.56
2022-10-15T02:34:46.230Z,98595.41
2022-10-15T02:37:13.024Z,98579.25
2022-10-15T02:39:39.458Z,98588.22
2022-10-15T02:42:06.468Z,98588.41
2022-10-15T02:44:32.891Z,98583.78
2022-10-15T02:47:00.087Z,98583.66
2022-10-15T02:49:26.529Z,98575.59
2022-10-15T02:51:53.715Z,98578.50
2022-10-15T02:54:20.304Z,98573.13
2022-10-15T02:56:46.738Z,98575.50
2022-10-15T02:59:13.157Z,98578.28
2022-10-15T03:01:39.587Z,98570.44
2022-10-15T03:04:06.078Z,98577.63
2022-10-15T03:06:32.566Z,98573.31
2022-10-15T03:08:59.469Z,98563.41
2022-10-15T03:11:25.893Z,98566.19
2022-10-15T03:13:52.529Z,98568.88
2022-10-15T03:16:19.169Z,98568.03
2022-10-15T03:18:45.604Z,98575.25
2022-10-15T03:21:12.041Z,98573.41
2022-10-15T03:23:38.466Z,98568.16
2022-10-15T03:26:05.070Z,98574.38
2022-10-15T03:28:31.521Z,98569.09
2022-10-15T03:30:57.984Z,98567.38
2022-10-15T03:33:25.311Z,98561.03
2022-10-15T03:35:52.753Z,98563.72
2022-10-15T03:38:19.316Z,98564.50
2022-10-15T03:40:45.783Z,98572.75
2022-10-15T03:43:12.235Z,98567.19
2022-10-15T03:45:38.665Z,98566.41
2022-10-15T03:48:05.367Z,98569.22
2022-10-15T03:50:31.861Z,98564.78
2022-10-15T03:52:58.366Z,98566.59
2022-10-15T03:55:24.799Z,98566.53
2022-10-15T03:57:51.260Z,98573.72
2022-10-15T04:00:17.651Z,98567.47
2022-10-15T04:02:44.040Z,98562.94
2022-10-15T04:05:10.531Z,98569.09
2022-10-15T04:07:36.994Z,98572.66
2022-10-15T04:10:03.587Z,98574.28
2022-10-15T04:12:30.034Z,98573.31
2022-10-15T04:14:56.463Z,98566.19
2022-10-15T04:17:22.927Z,98564.50
2022-10-15T04:19:49.352Z,98560.91
2022-10-15T04:22:15.743Z,98554.69
2022-10-15T04:24:42.184Z,98565.22
2022-10-15T04:27:08.789Z,98556.31
2022-10-15T04:29:35.338Z,98558.09
2022-10-15T04:32:02.005Z,98557.06
2022-10-15T04:34:28.480Z,98559.84
2022-10-15T04:36:54.931Z,98551.03
2022-10-15T04:39:21.607Z,98552.84
2022-10-15T04:41:48.605Z,98552.84
2022-10-15T04:44:15.232Z,98549.47
2022-10-15T04:46:41.751Z,98553.91
2022-10-15T04:49:08.270Z,98552.94
2022-10-15T04:51:34.642Z,98543.13
2022-10-15T04:54:01.844Z,98544.09
2022-10-15T04:56:28.239Z,98546.78
2022-10-15T04:58:54.649Z,98543.25
2022-10-15T05:01:21.401Z,98541.09
2022-10-15T05:03:48.569Z,98548.63
2022-10-15T05:06:19.771Z,98552.28
2022-10-15T05:08:46.779Z,98556.50
2022-10-15T05:11:17.884Z,98555.53
2022-10-15T05:13:44.710Z,98556.59
2022-10-15T05:16:17.392Z,98550.44
2022-10-15T05:18:46.102Z,98554.97
2022-10-15T05:21:12.912Z,98553.25
2022-10-15T05:23:39.400Z,98557.91
2022-10-15T05:26:07.286Z,98552.41
2022-10-15T05:28:33.891Z,98554.31
2022-10-15T05:31:07.439Z,98550.66
2022-10-15T05:33:34.343Z,98557.00
2022-10-15T05:36:11.043Z,98554.31
2022-10-15T05:38:37.680Z,98563.16
2022-10-15T05:41:04.264Z,98554.22
2022-10-15T05:43:30.654Z,98556.06
2022-10-15T05:45:57.255Z,98554.97
2022-10-15T05:48:23.698Z,98556.81
2022-10-15T05:50:50.121Z,98555.94
2022-10-15T05:53:16.565Z,98560.25
2022-10-15T05:55:43.054Z,98552.28
2022-10-15T05:58:09.464Z,98556.06
2022-10-15T06:00:36.376Z,98558.75
2022-10-15T06:03:02.806Z,98560.47
2022-10-15T06:05:29.332Z,98558.53
2022-10-15T06:07:56.647Z,98562.22
2022-10-15T06:10:23.580Z,98558.75
2022-10-15T06:12:50.842Z,98553.25
2022-10-15T06:15:18.429Z,98555.94
2022-10-15T06:17:45.046Z,98553.25
2022-10-15T06:20:12.156Z,98555.75
2022-10-15T06:22:38.712Z,98555.75
2022-10-15T06:25:05.326Z,98555.63
2022-10-15T06:27:33.757Z,98558.22
2022-10-15T06:30:00.155Z,98559.84
2022-10-15T06:32:26.546Z,98563.19
2022-10-15T06:34:53.091Z,98563.84
2022-10-15T06:37:19.474Z,98575.94
2022-10-15T06:39:46.779Z,98579.28
2022-10-15T06:42:13.227Z,98579.84
2022-10-15T06:44:39.958Z,98582.22
2022-10-15T06:47:06.962Z,98584.59
2022-10-15T06:49:33.547Z,98582.66
2022-10-15T06:52:03.426Z,98583.31
2022-10-15T06:54:30.375Z,98589.25
2022-10-15T06:56:56.850Z,98589.06
2022-10-15T06:59:23.470Z,98592.28
2022-10-15T07:01:49.964Z,98589.47
2022-10-15T07:04:16.354Z,98582.16
2022-10-15T07:06:42.902Z,98589.81
2022-10-15T07:09:09.370Z,98599.53
2022-10-15T07:11:35.835Z,98594.66
2022-10-15T07:14:02.617Z,98592.81
2022-10-15T07:16:29.069Z,98603.41
2022-10-15T07:18:55.455Z,98602.56
2022-10-15T07:21:21.946Z,98596.09
2022-10-15T07:23:48.418Z,98603.28
2022-10-15T07:26:14.898Z,98598.66
2022-10-15T07:28:41.459Z,98603.63
2022-10-15T07:31:07.961Z,98599.00
2022-10-15T07:33:34.898Z,98589.91
2022-10-15T07:36:05.651Z,98587.97
2022-10-15T07:38:32.417Z,98587.66
2022-10-15T07:40:59.724Z,98588.97
2022-10-15T07:43:26.293Z,98587.34
2022-10-15T07:45:52.892Z,98602.00
2022-10-15T07:48:19.529Z,98602.97
2022-10-15T07:50:46.068Z,98589.66
2022-10-15T07:53:12.602Z,98583.59
2022-10-15T07:55:39.259Z,98593.63
2022-10-15T07:58:08.261Z,98593.16
2022-10-15T08:00:34.805Z,98601.19
2022-10-15T08:03:01.408Z,98604.84
2022-10-15T08:05:27.844Z,98601.56
2022-10-15T08:07:54.485Z,98605.03
2022-10-15T08:10:21.051Z,98612.13
2022-10-15T08:12:47.608Z,98615.69
2022-10-15T08:15:15.462Z,98615.06
2022-10-15T08:17:41.936Z,98622.84
2022-10-15T08:20:08.593Z,98621.31
2022-10-15T08:22:35.219Z,98619.59
2022-10-15T08:25:01.826Z,98631.16
2022-10-15T08:27:28.353Z,98626.50
2022-10-15T08:29:54.785Z,98631.03
2022-10-15T08:32:21.483Z,98621.81
2022-10-15T08:34:48.125Z,98619.75
2022-10-15T08:39:46.876Z,98620.72
2022-10-15T08:42:22.733Z,98624.47
2022-10-15T08:44:56.889Z,98620.75
2022-10-15T08:47:30.262Z,98627.91
2022-10-15T08:49:58.435Z,98629.88
2022-10-15T08:52:24.811Z,98634.94
2022-10-15T08:54:51.697Z,98641.47
2022-10-15T08:57:38.836Z,98640.16
2022-10-15T09:00:25.652Z,98645.44
2022-10-15T09:03:10.932Z,98640.50
2022-10-15T09:06:12.749Z,98632.53
2022-10-15T09:08:44.915Z,98630.78
2022-10-15T09:11:14.173Z,98627.81
2022-10-15T09:13:41.871Z,98629.06
2022-10-15T09:16:11.122Z,98633.84
2022-10-15T09:18:38.162Z,98640.25
2022-10-15T09:21:05.407Z,98633.63
2022-10-15T09:23:33.141Z,98647.16
2022-10-15T09:26:07.550Z,98638.91
2022-10-15T09:28:43.188Z,98638.91
2022-10-15T09:31:11.697Z,98648.03
2022-10-15T09:33:43.074Z,98656.75
2022-10-15T09:36:12.713Z,98660.56
2022-10-15T09:38:39.123Z,98665.16
2022-10-15T09:41:05.583Z,98669.19
2022-10-15T09:43:36.063Z,98663.41
2022-10-15T09:46:03.413Z,98665.63
2022-10-15T09:48:36.820Z,98677.31
2022-10-15T09:51:06.330Z,98680.97
2022-10-15T09:53:41.725Z,98675.56
2022-10-15T09:56:24.273Z,98686.03
2022-10-15T09:58:55.370Z,98686.03
2022-10-15T10:01:23.314Z,98687.00
2022-10-15T10:04:09.783Z,98681.38
2022-10-15T10:06:48.083Z,98681.13
2022-10-15T10:09:17.508Z,98682.34
2022-10-15T10:11:54.977Z,98681.88
2022-10-15T10:14:23.896Z,98686.44
2022-10-15T10:17:07.618Z,98680.03
2022-10-15T10:19:34.095Z,98687.66
2022-10-15T10:22:12.909Z,98685.38
2022-10-15T10:24:39.520Z,98688.44
2022-10-15T10:27:17.342Z,98687.81
2022-10-15T10:29:48.307Z,98687.81
2022-10-15T10:32:20.445Z,98686.44
2022-10-15T10:34:52.213Z,98687.94
2022-10-15T10:37:19.578Z,98689.03
2022-10-15T10:39:51.680Z,98683.59
2022-10-15T10:42:18.595Z,98681.78
2022-10-15T10:44:46.763Z,98687.44
2022-10-15T10:47:16.011Z,98689.03
2022-10-15T10:49:45.442Z,98684.84
2022-10-15T10:52:27.172Z,98696.16
2022-10-15T10:55:12.104Z,98694.69
2022-10-15T10:57:41.659Z,98694.06
2022-10-15T11:00:12.052Z,98703.56
2022-10-15T11:02:41.607Z,98703.94
2022-10-15T11:05:08.244Z,98703.69
2022-10-15T11:07:43.507Z,98696.56
2022-10-15T11:10:21.884Z,98700.50
2022-10-15T11:12:53.627Z,98702.25
2022-10-15T11:15:20.024Z,98695.69
2022-10-15T11:17:59.542Z,98699.59
2022-10-15T11:20:45.583Z,98701.69
2022-10-15T11:23:36.460Z,98703.19
2022-10-15T11:26:18.897Z,98696.88
2022-10-15T11:29:08.445Z,98700.97
2022-10-15T11:31:49.336Z,98702.38
2022-10-15T11:34:41.345Z,98693.00
2022-10-15T11:37:17.195Z,98695.94
2022-10-15T11:39:43.585Z,98692.72
2022-10-15T11:42:22.546Z,98692.00
2022-10-15T11:44:55.177Z,98694.47
2022-10-15T11:47:21.620Z,98700.97
2022-10-15T11:50:06.906Z,98693.38
2022-10-15T11:52:45.677Z,98700.84
2022-10-15T11:55:12.476Z,98690.34
2022-10-15T11:57:40.324Z,98701.69
2022-10-15T12:00:07.114Z,98694.78
2022-10-15T12:02:37.910Z,98696.97
2022-10-15T12:05:06.585Z,98704.97
2022-10-15T12:07:49.548Z,98696.09
2022-10-15T12:10:29.216Z,98702.31
2022-10-15T12:13:14.159Z,98701.59
2022-10-15T12:15:52.815Z,98705.78
2022-10-15T12:18:34.611Z,98703.28
2022-10-15T12:21:01.212Z,98702.91
2022-10-15T12:23:36.851Z,98704.53
2022-10-15T12:26:23.210Z,98697.84
2022-10-15T12:28:54.079Z,98702.28
2022-10-15T12:31:20.905Z,98693.78
2022-10-15T12:33:49.627Z,98698.06
2022-10-15T12:36:18.784Z,98691.53
2022-10-15T12:39:27.877Z,98700.38
2022-10-15T12:42:01.701Z,98695.69
2022-10-15T12:44:30.432Z,98697.13
2022-10-15T12:46:57.439Z,98705.28
2022-10-15T12:49:26.983Z,98703.69
2022-10-15T12:51:56.358Z,98707.00
2022-10-15T12:54:35.280Z,98702.09
2022-10-15T12:57:04.868Z,98707.53
2022-10-15T12:59:51.284Z,98711.44
2022-10-15T13:02:36.000Z,98703.91
2022-10-15T13:05:02.884Z,98707.13
2022-10-15T13:07:29.385Z,98708.88
2022-10-15T13:09:56.076Z,98699.38
2022-10-15T13:12:25.944Z,98693.09
2022-10-15T13:14:59.495Z,98686.28
2022-10-15T13:17:26.293Z,98682.13
2022-10-15T13:20:07.879Z,98683.09
2022-10-15T13:22:35.979Z,98678.66
2022-10-15T13:25:02.714Z,98679.91
2022-10-15T13:27:37.998Z,98674.78
2022-10-15T13:30:04.518Z,98667.38
2022-10-15T13:32:32.159Z,98663.75
2022-10-15T13:34:59.713Z,98668.81
2022-10-15T13:37:35.867Z,98670.69
2022-10-15T13:40:07.536Z,98667.31
2022-10-15T13:42:34.805Z,98669.09
2022-10-15T13:45:04.439Z,98671.94
2022-10-15T13:47:35.417Z,98680.31
2022-10-15T13:50:31.016Z,98683.53
2022-10-15T13:52:59.320Z,98682.44
2022-10-15T13:55:28.553Z,98688.81
2022-10-15T13:58:02.214Z,98686.16
2022-10-15T14:00:33.587Z,98692.38
2022-10-15T14:03:26.842Z,98689.81
2022-10-15T14:05:54.025Z,98697.06
2022-10-15T14:08:38.367Z,98690.03
2022-10-15T14:11:04.831Z,98689.06
2022-10-15T14:13:31.520Z,98693.88
2022-10-15T14:16:16.432Z,98692.38
2022-10-15T14:18:49.494Z,98692.84
2022-10-15T14:21:18.339Z,98694.69
2022-10-15T14:23:45.707Z,98705.28
2022-10-15T14:26:13.025Z,98705.41
2022-10-15T14:28:40.112Z,98710.47
2022-10-15T14:31:07.655Z,98714.47
2022-10-15T14:33:37.146Z,98710.19
2022-10-15T14:36:14.635Z,98715.50
2022-10-15T14:38:42.103Z,98707.44
2022-10-15T14:41:23.665Z,98709.13
2022-10-15T14:44:02.271Z,98709.19
2022-10-15T14:46:35.591Z,98714.81
2022-10-15T14:49:02.363Z,98706.25
2022-10-15T14:51:28.828Z,98707.56
2022-10-15T14:53:55.639Z,98710.13
2022-10-15T14:56:24.102Z,98704.84
2022-10-15T14:58:53.250Z,98705.44
2022-10-15T15:01:20.636Z,98715.53
2022-10-15T15:03:51.909Z,98713.94
2022-10-15T15:06:18.671Z,98711.94
2022-10-15T15:08:45.547Z,98706.75
2022-10-15T15:11:19.490Z,98712.47
2022-10-15T15:13:48.026Z,98708.31
2022-10-15T15:16:15.842Z,98707.03
2022-10-15T15:18:43.930Z,98702.13
2022-10-15T15:21:14.865Z,98701.28
2022-10-15T15:23:41.532Z,98703.41
2022-10-15T15:26:07.912Z,98708.03
2022-10-15T15:28:34.385Z,98718.91
2022-10-15T15:31:02.485Z,98713.16
2022-10-15T15:33:29.037Z,98716.28
2022-10-15T15:36:00.342Z,98719.81
2022-10-15T15:38:30.995Z,98713.84
2022-10-15T15:41:01.807Z,98717.72
2022-10-15T15:43:28.467Z,98725.22
2022-10-15T15:45:54.987Z,98724.63
2022-10-15T15:48:21.363Z,98734.50
2022-10-15T15:50:48.058Z,98735.00
2022-10-15T15:53:14.591Z,98735.38
2022-10-15T15:55:41.006Z,98738.59
2022-10-15T15:58:07.598Z,98746.38
2022-10-15T16:00:34.000Z,98745.91
2022-10-15T16:03:00.433Z,98747.25
2022-10-15T16:05:26.954Z,98748.88
2022-10-15T16:07:53.336Z,98746.66
2022-10-15T16:10:19.879Z,98746.44
2022-10-15T16:12:46.308Z,98747.03
2022-10-15T16:15:14.729Z,98750.38
2022-10-15T16:17:42.075Z,98749.63
2022-10-15T16:20:08.835Z,98754.69
2022-10-15T16:22:35.331Z,98753.53
2022-10-15T16:25:01.760Z,98763.25
2022-10-15T16:27:28.547Z,98764.75
2022-10-15T16:29:55.120Z,98764.84
2022-10-15T16:32:21.578Z,98760.03
2022-10-15T16:34:48.031Z,98765.94
2022-10-15T16:37:14.418Z,98769.34
2022-10-15T16:39:40.963Z,98778.84
2022-10-15T16:42:08.482Z,98781.50
2022-10-15T16:44:35.118Z,98788.53
2022-10-15T16:47:01.568Z,98789.28
2022-10-15T16:49:28.079Z,98787.06
2022-10-15T16:51:54.506Z,98789.34
2022-10-15T16:54:21.501Z,98782.56
2022-10-15T16:56:50.557Z,98791.03
2022-10-15T16:59:19.589Z,98798.66
2022-10-15T17:01:45.997Z,98796.22
2022-10-15T17:04:12.657Z,98788.44
2022-10-15T17:06:39.042Z,98804.94
2022-10-15T17:09:05.478Z,98801.47
2022-10-15T17:11:34.749Z,98802.44
2022-10-15T17:14:03.713Z,98809.09
2022-10-15T17:16:31.928Z,98805.63
2022-10-15T17:18:58.550Z,98809.19
2022-10-15T17:21:26.676Z,98818.41
2022-10-15T17:23:54.116Z,98822.84
2022-10-15T17:26:22.218Z,98818.53
2022-10-15T17:28:49.258Z,98821.75
2022-10-15T17:31:17.767Z,98824.34
2022-10-15T17:33:44.916Z,98836.03
2022-10-15T17:36:15.751Z,98836.03
2022-10-15T17:38:42.280Z,98839.50
2022-10-15T17:41:13.487Z,98836.38
2022-10-15T17:43:40.389Z,98839.66
2022-10-15T17:46:11.506Z,98851.81
2022-10-15T17:48:39.331Z,98843.19
2022-10-15T17:51:11.035Z,98843.63
2022-10-15T17:53:37.560Z,98843.38
2022-10-15T17:56:14.775Z,98842.31
2022-10-15T17:58:41.396Z,98845.59
2022-10-15T18:01:12.051Z,98842.50
2022-10-15T18:03:38.609Z,98847.78
2022-10-15T18:06:15.324Z,98857.34
2022-10-15T18:08:41.997Z,98868.66
2022-10-15T18:11:09.002Z,98873.66
2022-10-15T18:13:35.557Z,98877.75
2022-10-15T18:16:02.154Z,98867.63
2022-10-15T18:18:28.724Z,98869.03
2022-10-15T18:20:55.458Z,98873.78
2022-10-15T18:23:22.495Z,98868.81
2022-10-15T18:25:48.942Z,98864.81
2022-10-15T18:28:15.369Z,98861.25
2022-10-15T18:30:42.334Z,98872.16
2022-10-15T18:33:10.696Z,98870.53
2022-10-15T18:35:38.481Z,98859.97
2022-10-15T18:38:05.194Z,98867.59
2022-10-15T18:40:33.591Z,98874.97
2022-10-15T18:43:03.021Z,98879.91
2022-10-15T18:45:29.492Z,98872.03
2022-10-15T18:47:55.999Z,98881.22
2022-10-15T18:50:22.678Z,98880.44
2022-10-15T18:52:49.131Z,98887.81
2022-10-15T18:55:15.673Z,98884.34
2022-10-15T18:57:42.434Z,98895.44
2022-10-15T19:00:09.182Z,98899.44
2022-10-15T19:02:35.600Z,98911.09
2022-10-15T19:05:02.085Z,98903.47
2022-10-15T19:07:31.638Z,98908.63
2022-10-15T19:09:58.274Z,98898.91
2022-10-15T19:12:24.849Z,98905.38
2022-10-15T19:14:51.422Z,98899.09
2022-10-15T19:17:17.910Z,98888.41
2022-10-15T19:19:49.792Z,98887.66
2022-10-15T19:22:16.852Z,98896.63
2022-10-15T19:24:43.268Z,98887.75
2022-10-15T19:29:41.282Z,98901.81
2022-10-15T19:32:08.030Z,98900.72
2022-10-15T19:34:37.414Z,98904.63
2022-10-15T19:37:03.951Z,98904.72
2022-10-15T19:39:32.721Z,98905.56
2022-10-15T19:41:59.201Z,98903.00
2022-10-15T19:44:27.571Z,98896.81
2022-10-15T19:46:54.685Z,98903.84
2022-10-15T19:49:21.332Z,98903.00
2022-10-15T19:51:48.573Z,98906.88
2022-10-15T19:54:15.783Z,98899.63
2022-10-15T19:56:42.239Z,98908.94
2022-10-15T19:59:10.049Z,98910.78
2022-10-15T20:01:36.512Z,98902.03
2022-10-15T20:04:06.148Z,98911.84
2022-10-15T20:06:33.786Z,98913.66
2022-10-15T20:09:02.088Z,98925.34
2022-10-15T20:11:28.544Z,98923.63
2022-10-15T20:13:55.004Z,98923.50
2022-10-15T20:16:23.268Z,98931.31
2022-10-15T20:18:50.700Z,98942.75
2022-10-15T20:21:17.588Z,98939.84
2022-10-15T20:23:45.062Z,98937.69
2022-10-15T20:26:13.762Z,98948.41
2022-10-15T20:28:41.612Z,98951.66
2022-10-15T20:31:09.288Z,98954.25
2022-10-15T20:33:36.496Z,98957.72
2022-10-15T20:36:03.960Z,98961.28
2022-10-15T20:38:30.348Z,98960.31
2022-10-15T20:40:56.786Z,98960.31
2022-10-15T20:43:23.724Z,98973.03
2022-10-15T20:45:50.298Z,98965.03
2022-10-15T20:48:20.076Z,98971.53
2022-10-15T20:50:47.610Z,98976.94
2022-10-15T20:53:14.295Z,98975.31
2022-10-15T20:55:40.767Z,98979.91
2022-10-15T20:58:07.343Z,98981.00
2022-10-15T21:00:33.840Z,98974.75
2022-10-15T21:03:00.218Z,98984.66
2022-10-15T21:05:26.653Z,98981.09
2022-10-15T21:07:53.047Z,98981.88
2022-10-15T21:10:19.550Z,98981.88
2022-10-15T21:12:45.942Z,98975.72
2022-10-15T21:15:12.377Z,98982.19
2022-10-15T21:17:38.806Z,98990.28
2022-10-15T21:20:05.597Z,98988.66
2022-10-15T21:22:31.962Z,98987.88
2022-10-15T21:24:58.384Z,98993.09
2022-10-15T21:27:24.898Z,98990.47
2022-10-15T21:29:51.538Z,98991.34
2022-10-15T21:32:17.929Z,98987.78
2022-10-15T21:34:44.437Z,98987.69
2022-10-15T21:37:11.321Z,98998.38
2022-10-15T21:39:37.804Z,98990.28
2022-10-15T21:42:04.251Z,98985.75
2022-10-15T21:44:30.672Z,98994.72
2022-10-15T21:46:57.123Z,98992.75
2022-10-15T21:49:23.611Z,99002.59
2022-10-15T21:51:50.051Z,99002.59
2022-10-15T21:54:16.456Z,98993.22
2022-10-15T21:56:42.858Z,98999.72
2022-10-15T21:59:09.384Z,98999.59
2022-10-15T22:01:37.918Z,99009.69
2022-10-15T22:04:08.539Z,99005.69
2022-10-15T22:06:35.551Z,99008.09
2022-10-15T22:09:02.815Z,99007.13
2022-10-15T22:11:30.447Z,99008.19
2022-10-15T22:13:58.137Z,99012.81
2022-10-15T22:16:25.160Z,99017.38
2022-10-15T22:18:51.948Z,99017.25
2022-10-15T22:21:19.834Z,99019.09
2022-10-15T22:23:47.932Z,99015.72
2022-10-15T22:26:14.896Z,99023.75
2022-10-15T22:28:41.987Z,99019.97
2022-10-15T22:31:10.144Z,99017.81
2022-10-15T22:33:36.657Z,99026.78
2022-10-15T22:36:07.556Z,99016.97
2022-10-15T22:38:33.968Z,99027.00
2022-10-15T22:41:01.516Z,99028.63
2022-10-15T22:43:27.931Z,99036.50
2022-10-15T22:45:58.814Z,99036.50
2022-10-15T22:48:25.261Z,99031.03
2022-10-15T22:50:58.413Z,99046.16
2022-10-15T22:53:25.228Z,99045.28
2022-10-15T22:56:14.992Z,99039.78
2022-10-15T22:58:41.604Z,99047.66
2022-10-15T23:01:13.840Z,99044.97
2022-10-15T23:03:41.840Z,99041.28
2022-10-15T23:06:08.487Z,99055.88
2022-10-15T23:08:34.970Z,99056.06
2022-10-15T23:11:09.345Z,99050.00
2022-10-15T23:13:36.619Z,99050.34
2022-10-15T23:16:22.610Z,99038.09
2022-10-15T23:18:52.871Z,99040.34
2022-10-15T23:21:22.387Z,99045.22
2022-10-15T23:23:48.810Z,99034.59
2022-10-15T23:26:16.274Z,99035.78
2022-10-15T23:28:43.404Z,99036.84
2022-10-15T23:31:20.469Z,99030.56
2022-10-15T23:33:47.242Z,99029.81
2022-10-15T23:36:14.216Z,99031.44
2022-10-15T23:38:40.683Z,99036.94
2022-10-15T23:41:08.386Z,99037.03
2022-10-15T23:43:34.799Z,99038.88
2022-10-15T23:46:01.229Z,99032.59
2022-10-15T23:48:28.157Z,99040.03
2022-10-15T23:50:59.262Z,99039.41
2022-10-15T23:53:28.987Z,99041.22
2022-10-15T23:55:55.368Z,99035.81
2022-10-15T23:58:21.805Z,99044.69
